Time;durP1;ratioP1;P1;durP2;ratioP2;P2;SDS_P1;SDS_P2;PMS_P1;PMS_P2;Temp;Humidity;BMP_temperature;BMP_pressure;BME280_temperature;BME280_humidity;BME280_pressure;Samples;Min_cycle;Max_cycle;Signal;HPM_P1;HPM_P2
2021/01/21 00:01:18;;;;;;;15.02;7.65;;;3.60;91.40;;;;;;6111340;23;20032;-81
2021/01/21 00:03:44;;;;;;;15.77;7.85;;;3.60;91.40;;;;;;6135651;23;20009;-81
2021/01/21 00:06:10;;;;;;;13.45;7.47;;;3.60;91.40;;;;;;6135005;23;20066;-81
2021/01/21 00:08:35;;;;;;;15.70;8.55;;;3.60;91.80;;;;;;6186470;23;20431;-81
2021/01/21 00:11:01;;;;;;;16.10;8.15;;;3.60;91.40;;;;;;6111070;23;20020;-81
2021/01/21 00:13:26;;;;;;;17.85;7.47;;;3.60;91.40;;;;;;6111041;23;20005;-81
2021/01/21 00:15:52;;;;;;;17.08;8.40;;;3.60;91.40;;;;;;6159683;23;20013;-81
2021/01/21 00:18:18;;;;;;;16.90;8.60;;;3.50;91.40;;;;;;6110614;23;20001;-81
2021/01/21 00:20:43;;;;;;;16.10;8.30;;;3.60;91.50;;;;;;6111323;23;20009;-81
2021/01/21 00:23:09;;;;;;;17.40;8.75;;;3.70;91.50;;;;;;6110830;23;20005;-81
2021/01/21 00:25:34;;;;;;;17.15;9.18;;;3.70;91.50;;;;;;6135782;23;20009;-81
2021/01/21 00:28:00;;;;;;;15.23;8.35;;;3.70;91.50;;;;;;6159859;23;20028;-81
2021/01/21 00:30:26;;;;;;;16.73;8.63;;;3.70;91.50;;;;;;6186257;23;20036;-81
2021/01/21 00:32:51;;;;;;;17.52;9.10;;;3.70;91.40;;;;;;6110506;23;20017;-81
2021/01/21 00:35:17;;;;;;;18.50;8.38;;;3.60;91.30;;;;;;6159908;23;20013;-81
2021/01/21 00:37:43;;;;;;;18.83;7.95;;;3.60;91.20;;;;;;6135205;23;20029;-81
2021/01/21 00:40:10;;;;;;;15.77;7.90;;;3.50;91.20;;;;;;6135014;23;20443;-81
2021/01/21 00:42:35;;;;;;;18.52;8.77;;;3.50;91.20;;;;;;6159448;23;20092;-81
2021/01/21 00:45:01;;;;;;;16.05;8.18;;;3.50;91.30;;;;;;6135469;23;20083;-81
2021/01/21 00:47:30;;;;;;;16.05;8.02;;;3.50;91.30;;;;;;6135663;23;20014;-81
2021/01/21 00:49:55;;;;;;;17.92;8.13;;;3.50;91.30;;;;;;6159756;23;20021;-80
2021/01/21 00:52:21;;;;;;;18.45;8.20;;;3.50;91.40;;;;;;6134779;23;20016;-81
2021/01/21 00:54:47;;;;;;;16.88;9.05;;;3.50;91.40;;;;;;6158313;23;20021;-81
2021/01/21 00:57:12;;;;;;;15.82;8.43;;;3.50;91.40;;;;;;6134654;23;20101;-82
2021/01/21 00:59:38;;;;;;;16.50;7.97;;;3.50;91.40;;;;;;6186300;23;20009;-82
2021/01/21 01:02:03;;;;;;;17.90;8.32;;;3.50;91.40;;;;;;6135004;23;20432;-82
2021/01/21 01:04:29;;;;;;;16.90;8.18;;;3.50;91.40;;;;;;6110530;23;20009;-82
2021/01/21 01:06:55;;;;;;;13.52;7.03;;;3.40;91.40;;;;;;6134824;23;20009;-81
2021/01/21 01:09:20;;;;;;;15.73;8.18;;;3.50;91.50;;;;;;6159400;23;20080;-80
2021/01/21 01:11:46;;;;;;;17.02;8.23;;;3.50;91.50;;;;;;6135171;23;20316;-81
2021/01/21 01:14:12;;;;;;;14.40;7.68;;;3.50;91.40;;;;;;6161009;23;20013;-80
2021/01/21 01:16:38;;;;;;;16.50;7.63;;;3.50;91.40;;;;;;6162020;23;19997;-80
2021/01/21 01:19:04;;;;;;;17.63;8.05;;;3.50;91.40;;;;;;6134852;23;20013;-80
2021/01/21 01:21:29;;;;;;;15.75;8.30;;;3.50;91.40;;;;;;6185647;23;20051;-81
2021/01/21 01:23:55;;;;;;;15.18;8.07;;;3.40;91.30;;;;;;6159166;23;20017;-81
2021/01/21 01:26:21;;;;;;;18.13;8.95;;;3.40;91.40;;;;;;6159491;23;20005;-81
2021/01/21 01:28:48;;;;;;;14.95;7.22;;;3.40;91.30;;;;;;6134418;23;20055;-81
2021/01/21 01:31:14;;;;;;;14.55;7.53;;;3.40;91.40;;;;;;6134763;23;20009;-81
2021/01/21 01:33:39;;;;;;;12.82;6.53;;;3.40;91.40;;;;;;6159479;23;20432;-81
2021/01/21 01:36:06;;;;;;;14.98;8.27;;;3.40;91.40;;;;;;6135192;23;20040;-81
2021/01/21 01:38:31;;;;;;;15.95;7.95;;;3.40;91.40;;;;;;6159277;23;20005;-81
2021/01/21 01:40:57;;;;;;;16.30;7.45;;;3.40;91.70;;;;;;6185593;23;20442;-81
2021/01/21 01:43:23;;;;;;;16.65;7.47;;;3.40;91.40;;;;;;6134877;23;20009;-81
2021/01/21 01:45:49;;;;;;;17.42;7.13;;;3.40;91.30;;;;;;6185733;23;19997;-81
2021/01/21 01:48:18;;;;;;;14.63;7.63;;;3.30;91.30;;;;;;6159356;23;20020;-81
2021/01/21 01:50:44;;;;;;;15.25;7.82;;;3.30;91.30;;;;;;6159228;23;20005;-81
2021/01/21 01:53:10;;;;;;;12.32;6.43;;;3.30;91.30;;;;;;6134593;23;20462;-81
2021/01/21 01:55:38;;;;;;;16.60;8.15;;;3.20;91.20;;;;;;6158899;23;20017;-81
2021/01/21 01:58:03;;;;;;;15.70;8.05;;;3.20;91.20;;;;;;6159271;23;20474;-80
2021/01/21 02:00:29;;;;;;;15.02;7.60;;;3.10;91.10;;;;;;6159373;23;20013;-80
2021/01/21 02:02:55;;;;;;;16.83;8.02;;;3.10;91.10;;;;;;6158984;23;20009;-81
2021/01/21 02:05:21;;;;;;;16.90;9.00;;;3.00;91.10;;;;;;6134403;23;20013;-81
2021/01/21 02:07:47;;;;;;;16.15;7.38;;;3.00;91.20;;;;;;6158873;23;20001;-81
2021/01/21 02:10:15;;;;;;;16.50;7.53;;;3.00;91.20;;;;;;6159445;23;20009;-81
2021/01/21 02:13:13;;;;;;;14.68;7.43;;;3.00;91.20;;;;;;6158918;23;20498;-81
2021/01/21 02:16:03;;;;;;;15.80;7.22;;;3.00;91.30;;;;;;6165712;23;20009;-80
2021/01/21 02:18:40;;;;;;;17.77;8.65;;;3.00;91.30;;;;;;6158901;23;20343;-81
2021/01/21 02:21:30;;;;;;;14.48;7.20;;;2.90;91.30;;;;;;6158894;23;20063;-81
2021/01/21 02:24:20;;;;;;;15.27;6.80;;;2.90;91.20;;;;;;6185141;23;20009;-81
2021/01/21 02:26:57;;;;;;;13.98;7.00;;;2.90;91.20;;;;;;6185171;23;20076;-81
2021/01/21 02:29:33;;;;;;;16.45;8.10;;;2.90;91.40;;;;;;6158506;23;20555;-81
2021/01/21 02:32:08;;;;;;;12.48;6.07;;;2.90;91.50;;;;;;6158817;23;20002;-80
2021/01/21 02:34:49;;;;;;;;;;;3.00;91.60;;;;;;6159671;23;20015;-81
2021/01/21 02:37:24;;;;;;;15.32;7.35;;;3.10;91.70;;;;;;6158814;23;19901;-80
2021/01/21 02:39:55;;;;;;;14.13;7.35;;;3.10;91.70;;;;;;6159665;23;20009;-80
2021/01/21 02:42:21;;;;;;;15.23;7.88;;;3.20;91.70;;;;;;6160629;23;20007;-80
2021/01/21 02:44:49;;;;;;;15.57;7.57;;;3.20;91.50;;;;;;6136361;23;20055;-80
2021/01/21 02:47:17;;;;;;;16.20;7.85;;;3.10;91.30;;;;;;6160611;23;20439;-80
2021/01/21 02:49:43;;;;;;;15.88;7.72;;;3.10;91.30;;;;;;6161207;23;20009;-81
2021/01/21 02:52:33;;;;;;;16.70;7.47;;;3.10;91.30;;;;;;6160436;23;20009;-81
2021/01/21 02:55:38;;;;;;;15.95;8.07;;;3.00;91.30;;;;;;6186862;23;20037;-80
2021/01/21 02:58:32;;;;;;;16.00;7.72;;;3.00;91.50;;;;;;6160645;23;20091;-81
2021/01/21 03:01:01;;;;;;;14.45;7.22;;;3.10;91.60;;;;;;6149449;23;20059;-80
2021/01/21 03:03:28;;;;;;;12.80;7.03;;;3.10;91.50;;;;;;6136103;23;20016;-80
2021/01/21 03:05:57;;;;;;;14.38;7.57;;;3.10;91.50;;;;;;6161264;23;20025;-80
2021/01/21 03:08:23;;;;;;;16.45;6.97;;;3.10;91.50;;;;;;6160300;23;20332;-80
2021/01/21 03:10:49;;;;;;;13.88;7.03;;;3.10;91.60;;;;;;6186907;23;20024;-80
2021/01/21 03:13:15;;;;;;;17.77;7.82;;;3.20;91.70;;;;;;6160071;23;20587;-80
2021/01/21 03:15:40;;;;;;;14.68;6.60;;;3.20;91.70;;;;;;6135939;23;20013;-81
2021/01/21 03:18:07;;;;;;;12.38;6.32;;;3.30;91.70;;;;;;6160873;23;20016;-81
2021/01/21 03:20:33;;;;;;;12.75;5.82;;;3.30;91.80;;;;;;6135901;23;20092;-81
2021/01/21 03:22:58;;;;;;;13.90;7.10;;;3.40;91.80;;;;;;6135649;23;20055;-81
2021/01/21 03:25:24;;;;;;;17.85;7.93;;;3.40;91.80;;;;;;6186681;23;20340;-80
2021/01/21 03:27:49;;;;;;;12.98;6.47;;;3.50;91.70;;;;;;6136182;23;20059;-83
2021/01/21 03:30:16;;;;;;;19.55;9.50;;;3.50;91.80;;;;;;6135841;23;20024;-82
2021/01/21 03:32:41;;;;;;;14.13;6.75;;;3.60;91.80;;;;;;6135858;23;20006;-82
2021/01/21 03:35:07;;;;;;;12.80;6.53;;;3.60;91.90;;;;;;6135726;23;20016;-82
2021/01/21 03:37:34;;;;;;;18.77;7.45;;;3.60;91.80;;;;;;6159988;23;20001;-81
2021/01/21 03:39:59;;;;;;;13.88;7.00;;;3.70;91.90;;;;;;6160163;23;20001;-81
2021/01/21 03:42:28;;;;;;;14.45;7.20;;;3.80;91.80;;;;;;6160476;23;20036;-81
2021/01/21 03:44:53;;;;;;;14.07;6.75;;;3.80;91.90;;;;;;6186703;23;20083;-80
2021/01/21 03:47:19;;;;;;;12.18;6.05;;;3.80;91.80;;;;;;6160413;23;20471;-81
2021/01/21 03:49:45;;;;;;;14.25;6.45;;;3.80;91.80;;;;;;6186274;23;20015;-80
2021/01/21 03:52:10;;;;;;;11.88;6.30;;;3.90;91.80;;;;;;6111309;23;20060;-80
2021/01/21 03:54:36;;;;;;;11.95;6.00;;;3.90;91.80;;;;;;6160282;23;20037;-80
2021/01/21 03:57:01;;;;;;;13.15;6.18;;;3.90;91.80;;;;;;6186951;23;20055;-81
2021/01/21 03:59:27;;;;;;;11.68;5.95;;;3.90;91.80;;;;;;6137026;23;20063;-81
2021/01/21 04:01:53;;;;;;;16.23;5.97;;;4.00;92.10;;;;;;6113368;23;20056;-80
2021/01/21 04:04:18;;;;;;;12.45;5.53;;;4.00;91.80;;;;;;6160443;23;20426;-81
2021/01/21 04:06:44;;;;;;;14.85;5.88;;;4.00;91.80;;;;;;6160138;23;20036;-81
2021/01/21 04:09:09;;;;;;;13.35;6.50;;;4.10;91.70;;;;;;6135285;23;20012;-81
2021/01/21 04:11:35;;;;;;;12.00;5.90;;;4.10;91.80;;;;;;6135277;23;20439;-81
2021/01/21 04:14:01;;;;;;;13.27;6.30;;;4.10;91.80;;;;;;6159948;23;20012;-81
2021/01/21 04:16:26;;;;;;;12.40;5.55;;;4.10;91.80;;;;;;6111071;23;20379;-82
2021/01/21 04:18:53;;;;;;;13.65;5.93;;;4.10;91.80;;;;;;6159600;23;20012;-81
2021/01/21 04:21:18;;;;;;;10.82;5.43;;;4.20;91.80;;;;;;6135434;23;20012;-81
2021/01/21 04:23:44;;;;;;;13.43;5.75;;;4.20;91.70;;;;;;6186157;23;20012;-81
2021/01/21 04:26:10;;;;;;;12.32;6.10;;;4.10;91.70;;;;;;6135015;23;20009;-82
2021/01/21 04:28:35;;;;;;;10.95;5.28;;;4.20;91.80;;;;;;6159985;23;20016;-80
2021/01/21 04:31:01;;;;;;;12.10;5.25;;;4.20;91.80;;;;;;6134779;23;20384;-81
2021/01/21 04:33:27;;;;;;;12.60;5.95;;;4.20;91.80;;;;;;6135192;23;20335;-81
2021/01/21 04:35:53;;;;;;;12.20;5.38;;;4.30;92.10;;;;;;6159881;23;20089;-81
2021/01/21 04:38:18;;;;;;;12.23;4.82;;;4.30;92.10;;;;;;6159927;23;20009;-80
2021/01/21 04:40:45;;;;;;;10.30;4.75;;;4.30;91.90;;;;;;6160171;23;20312;-81
2021/01/21 04:43:11;;;;;;;9.77;4.53;;;4.40;91.80;;;;;;6159686;23;20352;-80
2021/01/21 04:45:36;;;;;;;11.20;5.05;;;4.40;91.90;;;;;;6159650;23;20067;-81
2021/01/21 04:48:03;;;;;;;11.00;4.95;;;4.40;91.80;;;;;;6159390;23;20032;-81
2021/01/21 04:50:30;;;;;;;10.52;5.03;;;4.50;91.80;;;;;;6185950;23;20011;-81
2021/01/21 04:52:57;;;;;;;11.68;4.97;;;4.50;91.80;;;;;;6159450;23;20005;-81
2021/01/21 04:55:31;;;;;;;10.57;4.70;;;4.50;91.80;;;;;;6160091;23;20467;-81
2021/01/21 04:58:17;;;;;;;10.27;4.57;;;4.50;91.80;;;;;;6159168;23;20444;-81
2021/01/21 05:00:46;;;;;;;9.10;4.20;;;4.50;91.80;;;;;;6159374;23;20013;-81
2021/01/21 05:03:13;;;;;;;11.43;4.80;;;4.50;91.80;;;;;;6159260;23;20024;-81
2021/01/21 05:05:39;;;;;;;12.00;5.85;;;4.50;91.70;;;;;;6159358;23;20051;-81
2021/01/21 05:08:05;;;;;;;11.32;5.47;;;4.60;92.00;;;;;;6159686;23;20005;-81
2021/01/21 05:10:35;;;;;;;14.40;6.57;;;4.50;91.70;;;;;;6159398;23;20005;-81
2021/01/21 05:13:00;;;;;;;11.90;4.93;;;4.60;92.20;;;;;;6159683;23;20008;-81
2021/01/21 05:15:26;;;;;;;11.48;5.00;;;4.60;91.80;;;;;;6159362;23;20013;-81
2021/01/21 05:17:52;;;;;;;11.38;4.47;;;4.60;91.80;;;;;;6135308;23;20005;-81
2021/01/21 05:20:25;;;;;;;9.57;4.28;;;4.70;91.80;;;;;;6159533;23;20083;-81
2021/01/21 05:23:02;;;;;;;8.75;4.72;;;4.70;91.70;;;;;;6159160;23;20427;-81
2021/01/21 05:25:28;;;;;;;11.15;5.05;;;4.70;91.80;;;;;;6159348;23;20044;-81
2021/01/21 05:27:55;;;;;;;9.85;4.85;;;4.60;91.70;;;;;;6135161;23;20336;-81
2021/01/21 05:30:21;;;;;;;12.15;5.22;;;4.70;91.70;;;;;;6159433;23;20001;-81
2021/01/21 05:32:49;;;;;;;10.93;5.45;;;4.70;91.80;;;;;;6159303;23;20011;-81
2021/01/21 05:35:16;;;;;;;10.40;4.60;;;4.70;91.70;;;;;;6159520;23;20040;-81
2021/01/21 05:37:45;;;;;;;11.73;5.13;;;4.70;91.70;;;;;;6159255;23;20025;-81
2021/01/21 05:40:11;;;;;;;10.32;4.72;;;4.60;91.50;;;;;;6159084;23;20044;-82
2021/01/21 05:42:37;;;;;;;10.25;4.75;;;4.60;91.60;;;;;;6134815;23;20008;-81
2021/01/21 05:45:04;;;;;;;10.68;4.68;;;4.60;91.70;;;;;;6134884;23;20013;-81
2021/01/21 05:47:31;;;;;;;11.88;4.70;;;4.60;91.70;;;;;;6159179;23;20009;-81
2021/01/21 05:49:56;;;;;;;9.40;4.30;;;4.60;91.80;;;;;;6159287;23;20032;-81
2021/01/21 05:52:24;;;;;;;8.63;4.00;;;4.70;91.70;;;;;;6134509;23;20005;-81
2021/01/21 05:54:50;;;;;;;10.73;4.60;;;4.60;91.70;;;;;;6158725;23;20507;-82
2021/01/21 05:57:16;;;;;;;9.82;4.22;;;4.70;91.80;;;;;;6159061;23;20036;-81
2021/01/21 05:59:43;;;;;;;10.30;4.10;;;4.70;91.70;;;;;;6159598;23;20013;-81
2021/01/21 06:02:09;;;;;;;9.40;5.28;;;4.70;91.70;;;;;;6185525;23;20497;-81
2021/01/21 06:04:36;;;;;;;9.77;4.47;;;4.70;91.70;;;;;;6158979;23;20335;-81
2021/01/21 06:07:02;;;;;;;9.45;4.30;;;4.70;91.80;;;;;;6158911;23;20068;-81
2021/01/21 06:09:29;;;;;;;9.63;4.47;;;4.70;91.80;;;;;;6159094;23;20001;-81
2021/01/21 06:12:03;;;;;;;8.88;3.88;;;4.80;91.70;;;;;;6159044;23;20384;-81
2021/01/21 06:14:29;;;;;;;12.30;5.13;;;4.70;91.70;;;;;;6159494;23;20092;-81
2021/01/21 06:16:55;;;;;;;10.75;4.20;;;4.70;91.80;;;;;;6160556;23;20029;-81
2021/01/21 06:19:22;;;;;;;13.15;4.85;;;4.80;91.90;;;;;;6136524;23;20015;-85
2021/01/21 06:21:54;;;;;;;8.35;3.47;;;4.90;92.10;;;;;;6136747;23;20446;-86
2021/01/21 06:24:28;;;;;;;10.57;4.57;;;5.00;92.10;;;;;;6161451;23;20083;-86
2021/01/21 06:26:55;;;;;;;9.27;3.88;;;5.20;92.20;;;;;;6161850;23;20005;-86
2021/01/21 06:29:28;;;;;;;11.25;3.63;;;5.20;92.20;;;;;;6141506;23;20073;-86
2021/01/21 06:32:01;;;;;;;9.52;4.13;;;5.20;92.10;;;;;;6164932;23;20005;-87
2021/01/21 06:34:31;;;;;;;9.52;3.80;;;5.30;92.00;;;;;;6163002;23;20427;-86
2021/01/21 06:37:01;;;;;;;8.82;4.18;;;5.30;92.00;;;;;;6162055;23;20033;-87
2021/01/21 06:40:15;;;;;;;8.05;3.72;;;5.30;92.00;;;;;;6162342;23;20001;-86
2021/01/21 06:43:21;;;;;;;10.27;4.15;;;5.30;91.90;;;;;;6167537;23;20129;-81
2021/01/21 06:45:47;;;;;;;9.02;3.63;;;5.30;91.90;;;;;;6097270;23;20042;-82
2021/01/21 06:48:13;;;;;;;7.32;3.03;;;5.40;92.00;;;;;;6097072;23;20011;-81
2021/01/21 06:50:41;;;;;;;7.40;3.15;;;5.40;92.00;;;;;;6139444;23;20424;-81
2021/01/21 06:53:13;;;;;;;9.15;3.60;;;5.40;92.00;;;;;;6187124;23;20008;-83
2021/01/21 06:55:45;;;;;;;7.25;3.47;;;5.50;92.30;;;;;;6160362;23;20609;-87
2021/01/21 06:58:11;;;;;;;8.25;3.75;;;5.50;92.00;;;;;;6186700;23;20017;-82
2021/01/21 07:00:44;;;;;;;8.93;3.53;;;5.50;92.00;;;;;;6160876;23;20005;-90
2021/01/21 07:03:32;;;;;;;8.13;3.40;;;5.60;92.00;;;;;;6164504;23;20425;-88
2021/01/21 07:06:04;;;;;;;8.20;3.60;;;5.60;92.00;;;;;;6160743;23;20005;-85
2021/01/21 07:08:50;;;;;;;8.50;3.42;;;5.50;91.90;;;;;;6136217;23;20009;-84
2021/01/21 07:11:16;;;;;;;8.85;3.72;;;5.60;91.90;;;;;;6140027;23;20013;-84
2021/01/21 07:13:42;;;;;;;10.82;4.22;;;5.60;91.90;;;;;;6136130;23;20016;-84
2021/01/21 07:16:29;;;;;;;9.60;3.47;;;5.70;91.90;;;;;;6111807;23;20017;-84
2021/01/21 07:19:00;;;;;;;7.50;3.38;;;5.70;91.90;;;;;;6159339;23;20020;-83
2021/01/21 07:21:29;;;;;;;9.02;3.45;;;5.70;91.90;;;;;;6136702;23;20382;-87
2021/01/21 07:23:57;;;;;;;8.13;3.22;;;5.70;92.00;;;;;;6137084;23;20032;-87
2021/01/21 07:26:33;;;;;;;7.55;3.53;;;5.80;92.00;;;;;;6160765;23;20015;-86
2021/01/21 07:29:21;;;;;;;7.65;2.65;;;5.80;92.00;;;;;;6161091;23;20036;-86
2021/01/21 07:31:56;;;;;;;6.35;2.63;;;5.90;92.10;;;;;;6160717;23;20343;-86
2021/01/21 07:34:45;;;;;;;5.30;2.55;;;6.00;92.10;;;;;;6160099;23;20024;-87
2021/01/21 07:37:24;;;;;;;7.25;2.83;;;6.00;92.20;;;;;;6160612;23;20060;-86
2021/01/21 07:40:02;;;;;;;6.82;2.85;;;6.10;92.10;;;;;;6160556;23;20042;-86
2021/01/21 07:42:52;;;;;;;5.90;2.58;;;6.20;92.10;;;;;;6160614;23;20301;-85
2021/01/21 07:45:28;;;;;;;5.70;2.42;;;6.20;92.10;;;;;;6135931;23;20009;-83
2021/01/21 07:48:28;;;;;;;5.68;2.70;;;6.30;92.10;;;;;;6135412;23;20012;-84
2021/01/21 07:51:48;;;;;;;6.07;2.45;;;6.30;92.10;;;;;;6160106;23;20015;-85
2021/01/21 07:54:55;;;;;;;6.15;2.67;;;6.40;92.10;;;;;;6162882;23;20363;-83
2021/01/21 07:57:40;;;;;;;4.95;2.30;;;6.40;92.10;;;;;;6134826;23;20032;-85
2021/01/21 08:00:11;;;;;;;6.50;2.50;;;6.50;92.00;;;;;;6129562;23;20022;-87
2021/01/21 08:02:49;;;;;;;5.25;2.45;;;6.50;92.10;;;;;;6129244;23;20088;-86
2021/01/21 08:05:17;;;;;;;7.55;2.92;;;6.60;92.10;;;;;;6129331;23;20009;-85
2021/01/21 08:07:55;;;;;;;7.07;2.42;;;6.70;92.20;;;;;;6129054;23;20379;-86
2021/01/21 08:10:29;;;;;;;8.73;2.83;;;6.70;92.10;;;;;;6129232;23;20105;-87
2021/01/21 08:12:57;;;;;;;5.45;2.55;;;6.80;92.10;;;;;;6129639;23;20002;-87
2021/01/21 08:15:25;;;;;;;7.32;2.92;;;6.90;92.50;;;;;;6128901;23;20048;-86
2021/01/21 08:18:44;;;;;;;5.45;2.38;;;6.90;92.20;;;;;;6128947;23;20010;-85
2021/01/21 08:21:28;;;;;;;6.93;2.40;;;7.00;92.20;;;;;;6065699;23;20011;-85
2021/01/21 08:24:02;;;;;;;5.70;2.40;;;7.10;92.30;;;;;;6047559;23;20013;-85
2021/01/21 08:26:29;;;;;;;5.27;2.20;;;7.20;92.30;;;;;;6154900;23;20052;-85
2021/01/21 08:29:02;;;;;;;6.65;2.53;;;7.30;92.30;;;;;;6155093;23;20005;-85
2021/01/21 08:31:42;;;;;;;3.50;1.90;;;7.40;92.30;;;;;;6154884;23;19997;-85
2021/01/21 08:34:15;;;;;;;4.25;1.70;;;7.50;92.30;;;;;;6154770;23;20104;-85
2021/01/21 08:36:49;;;;;;;4.70;2.10;;;7.60;92.40;;;;;;6154077;23;20031;-89
2021/01/21 08:39:15;;;;;;;4.15;1.98;;;7.70;92.30;;;;;;6131705;23;20013;-87
2021/01/21 08:41:43;;;;;;;6.22;1.95;;;7.80;92.30;;;;;;6154583;23;20010;-86
2021/01/21 08:44:17;;;;;;;4.53;1.88;;;7.80;92.30;;;;;;6155490;23;20012;-87
2021/01/21 08:46:45;;;;;;;5.00;2.17;;;7.90;92.30;;;;;;6154811;23;20340;-86
2021/01/21 08:49:19;;;;;;;5.50;2.30;;;8.00;92.10;;;;;;6154649;23;20097;-86
2021/01/21 08:52:41;;;;;;;6.00;2.25;;;8.00;92.10;;;;;;6154689;23;20010;-87
2021/01/21 08:55:07;;;;;;;5.50;2.28;;;8.10;92.20;;;;;;6155678;23;20444;-87
2021/01/21 08:57:33;;;;;;;6.00;2.42;;;8.10;92.20;;;;;;6155236;23;20084;-87
2021/01/21 09:00:12;;;;;;;5.43;2.35;;;8.20;92.10;;;;;;6154722;23;20033;-88
2021/01/21 09:02:42;;;;;;;6.00;2.15;;;8.20;92.00;;;;;;6130489;23;20006;-88
2021/01/21 09:05:08;;;;;;;6.45;2.53;;;8.30;92.00;;;;;;6155109;23;20005;-88
2021/01/21 09:07:34;;;;;;;4.47;2.03;;;8.30;92.10;;;;;;6155082;23;20009;-88
2021/01/21 09:10:35;;;;;;;5.35;2.20;;;8.30;92.20;;;;;;6154946;23;20468;-88
2021/01/21 09:13:01;;;;;;;8.27;2.58;;;8.40;92.20;;;;;;6134268;23;20017;-87
2021/01/21 09:15:30;;;;;;;4.07;2.10;;;8.30;91.80;;;;;;6154899;23;20009;-85
2021/01/21 09:18:08;;;;;;;4.38;2.05;;;8.40;91.80;;;;;;6129881;23;20005;-84
2021/01/21 09:20:41;;;;;;;5.63;2.50;;;8.40;91.90;;;;;;6154355;23;20009;-85
2021/01/21 09:23:35;;;;;;;5.80;2.50;;;8.50;92.30;;;;;;6129921;23;20403;-85
2021/01/21 09:26:24;;;;;;;6.47;2.38;;;8.70;92.80;;;;;;6179150;23;20008;-85
2021/01/21 09:29:25;;;;;;;6.28;2.55;;;8.90;92.40;;;;;;6154652;23;20093;-85
2021/01/21 09:31:51;;;;;;;6.82;2.95;;;9.00;92.20;;;;;;6155077;23;20028;-87
2021/01/21 09:34:19;;;;;;;5.45;2.22;;;9.00;91.70;;;;;;6155927;23;20017;-88
2021/01/21 09:36:45;;;;;;;4.45;1.95;;;8.90;91.50;;;;;;6131108;23;20009;-87
2021/01/21 09:39:13;;;;;;;4.10;2.17;;;8.80;91.70;;;;;;6154629;23;20336;-87
2021/01/21 09:41:39;;;;;;;7.55;2.45;;;8.80;91.70;;;;;;6130694;23;20013;-85
2021/01/21 09:44:04;;;;;;;7.25;2.28;;;8.70;91.70;;;;;;6154460;23;20305;-85
2021/01/21 09:46:30;;;;;;;6.55;2.30;;;8.80;92.00;;;;;;6154003;23;20432;-84
2021/01/21 09:48:56;;;;;;;4.80;2.22;;;9.00;92.10;;;;;;6154007;23;20016;-85
2021/01/21 09:51:21;;;;;;;6.78;2.45;;;9.10;92.40;;;;;;6154534;23;20375;-85
2021/01/21 09:53:47;;;;;;;5.63;2.42;;;9.20;92.40;;;;;;6154313;23;20044;-85
2021/01/21 09:56:13;;;;;;;4.65;2.40;;;9.40;92.60;;;;;;6129885;23;20022;-85
2021/01/21 09:58:41;;;;;;;6.45;2.28;;;9.50;92.40;;;;;;6153801;23;20021;-85
2021/01/21 10:01:08;;;;;;;6.28;2.10;;;9.70;92.40;;;;;;6129903;23;20016;-88
2021/01/21 10:03:33;;;;;;;4.68;2.08;;;9.90;92.40;;;;;;6154484;23;20420;-89
2021/01/21 10:06:00;;;;;;;4.80;2.15;;;10.00;92.50;;;;;;6154533;23;20012;-89
2021/01/21 10:08:26;;;;;;;3.80;2.03;;;10.20;92.50;;;;;;6155193;23;20010;-90
2021/01/21 10:10:53;;;;;;;4.18;2.03;;;10.50;92.60;;;;;;6154789;23;20013;-83
2021/01/21 10:13:18;;;;;;;5.00;2.10;;;10.60;92.50;;;;;;6130094;23;20059;-85
2021/01/21 10:15:57;;;;;;;5.55;2.10;;;10.80;92.60;;;;;;6131620;23;20018;-89
2021/01/21 10:18:26;;;;;;;4.70;2.00;;;11.00;92.70;;;;;;6155537;23;20005;-88
2021/01/21 10:20:51;;;;;;;5.47;2.17;;;11.30;92.80;;;;;;6154765;23;20088;-86
2021/01/21 10:23:18;;;;;;;4.80;2.20;;;11.60;92.90;;;;;;6130258;23;20010;-88
2021/01/21 10:25:44;;;;;;;5.78;2.30;;;11.80;93.00;;;;;;6153643;23;20010;-88
2021/01/21 10:28:09;;;;;;;5.93;2.10;;;12.20;93.10;;;;;;6154802;23;20428;-86
2021/01/21 10:30:38;;;;;;;5.80;2.30;;;12.60;93.30;;;;;;6154246;23;20005;-86
2021/01/21 10:33:04;;;;;;;10.30;4.40;;;12.90;93.10;;;;;;6130155;23;20005;-86
2021/01/21 10:35:29;;;;;;;6.22;2.17;;;13.20;93.10;;;;;;6159121;23;20020;-86
2021/01/21 10:37:55;;;;;;;5.65;2.33;;;13.50;93.20;;;;;;6162614;23;20336;-86
2021/01/21 10:40:20;;;;;;;3.65;2.00;;;13.90;92.80;;;;;;6137358;23;20020;-85
2021/01/21 10:42:49;;;;;;;10.98;2.83;;;14.00;92.70;;;;;;6155890;23;20309;-87
2021/01/21 10:45:14;;;;;;;5.75;2.60;;;14.30;92.70;;;;;;6131829;23;20491;-85
2021/01/21 10:47:40;;;;;;;4.07;2.00;;;14.50;92.40;;;;;;6155406;23;20002;-86
2021/01/21 10:50:06;;;;;;;6.38;2.50;;;14.70;92.60;;;;;;6155246;23;20016;-90
2021/01/21 10:52:32;;;;;;;2.97;1.88;;;15.00;92.80;;;;;;6154924;23;20068;-86
2021/01/21 10:54:59;;;;;;;4.50;2.00;;;15.30;92.70;;;;;;6130810;23;20440;-90
2021/01/21 10:57:25;;;;;;;3.03;1.55;;;15.50;92.60;;;;;;6155128;23;20424;-88
2021/01/21 10:59:50;;;;;;;2.55;1.48;;;15.80;92.50;;;;;;6154891;23;20014;-88
2021/01/21 11:02:16;;;;;;;3.60;1.55;;;15.90;92.60;;;;;;6132468;23;20016;-90
2021/01/21 11:04:42;;;;;;;3.13;1.63;;;16.10;91.70;;;;;;6156024;23;20360;-86
2021/01/21 11:07:08;;;;;;;2.85;1.80;;;15.80;90.80;;;;;;6156399;23;20330;-86
2021/01/21 11:09:36;;;;;;;1.92;1.20;;;15.70;91.30;;;;;;6155788;23;20008;-86
2021/01/21 11:12:08;;;;;;;2.33;1.42;;;15.90;92.10;;;;;;6156304;23;20001;-86
2021/01/21 11:14:35;;;;;;;3.10;1.05;;;16.00;92.00;;;;;;6131429;23;20100;-85
2021/01/21 11:17:01;;;;;;;3.20;1.30;;;16.00;91.50;;;;;;6155953;23;20005;-87
2021/01/21 11:19:26;;;;;;;1.73;1.23;;;15.80;90.90;;;;;;6156175;23;20051;-88
2021/01/21 11:21:52;;;;;;;1.88;1.30;;;15.70;90.80;;;;;;6157232;23;20005;-87
2021/01/21 11:24:23;;;;;;;2.88;1.42;;;15.60;91.30;;;;;;6132039;23;20017;-85
2021/01/21 11:30:25;;;;;;;;;;;;;;;;;;;;;
2021/01/21 11:32:51;;;;;;;4.13;1.50;;;15.70;92.10;;;;;;6021687;23;20078;-87
2021/01/21 11:35:17;;;;;;;1.27;1.10;;;16.10;92.30;;;;;;6095748;23;20468;-80
2021/01/21 11:37:45;;;;;;;2.22;1.17;;;16.20;91.80;;;;;;6095461;23;20093;-80
2021/01/21 11:40:11;;;;;;;2.97;1.60;;;16.40;91.80;;;;;;6083446;23;20421;-81
2021/01/21 11:43:01;;;;;;;3.17;1.25;;;16.30;91.00;;;;;;6155021;23;20387;-85
2021/01/21 11:45:26;;;;;;;3.90;1.48;;;16.10;90.90;;;;;;6154546;23;20305;-85
2021/01/21 11:47:52;;;;;;;2.47;1.58;;;16.10;91.30;;;;;;6155452;23;20011;-84
2021/01/21 11:50:21;;;;;;;2.92;1.30;;;16.00;91.10;;;;;;6155567;23;20096;-83
2021/01/21 11:52:47;;;;;;;4.75;1.40;;;15.90;91.10;;;;;;6155262;23;20014;-83
2021/01/21 11:55:36;;;;;;;1.88;1.23;;;15.80;91.00;;;;;;6155223;23;20482;-83
2021/01/21 11:58:12;;;;;;;2.28;1.27;;;15.70;90.70;;;;;;6130645;23;20104;-83
2021/01/21 12:00:49;;;;;;;4.97;1.25;;;15.50;91.00;;;;;;6131908;23;20013;-84
2021/01/21 12:03:14;;;;;;;6.30;1.35;;;15.60;91.40;;;;;;6130836;23;20040;-85
2021/01/21 12:05:43;;;;;;;3.15;1.25;;;15.60;91.00;;;;;;6155417;23;20313;-86
2021/01/21 12:08:09;;;;;;;2.83;1.42;;;15.60;90.90;;;;;;6155183;23;20010;-86
2021/01/21 12:10:37;;;;;;;5.28;2.08;;;15.50;91.20;;;;;;6155230;23;20336;-90
2021/01/21 12:13:03;;;;;;;2.28;1.23;;;15.50;91.20;;;;;;6130847;23;20020;-87
2021/01/21 12:15:30;;;;;;;5.95;1.80;;;15.40;90.90;;;;;;6131306;23;20022;-89
2021/01/21 12:17:56;;;;;;;5.05;1.73;;;15.30;90.70;;;;;;6132421;23;20087;-90
2021/01/21 12:20:27;;;;;;;26.10;9.63;;;15.20;90.90;;;;;;6133447;23;20014;-88
2021/01/21 12:22:53;;;;;;;24.48;9.63;;;15.20;91.10;;;;;;6160383;23;20014;-87
2021/01/21 12:26:12;;;;;;;;;;;;;;;;;;;;;
2021/01/21 12:29:01;;;;;;;;;;;;;;;;;;;;;
2021/01/21 12:32:02;;;;;;;9.52;3.88;;;15.20;91.20;;;;;;6155964;23;20080;-84
2021/01/21 12:34:59;;;;;;;6.15;2.67;;;15.20;91.30;;;;;;6153829;23;20065;-84
2021/01/21 12:41:05;;;;;;;7.32;2.78;;;15.40;91.50;;;;;;6098846;23;20491;-85
2021/01/21 12:43:45;;;;;;;8.07;2.40;;;15.40;91.50;;;;;;6130048;23;20096;-85
2021/01/21 12:49:43;;;;;;;7.22;3.10;;;15.50;91.30;;;;;;6124274;23;20005;-85
2021/01/21 12:52:11;;;;;;;4.78;2.00;;;15.50;91.50;;;;;;6154149;23;20474;-86
2021/01/21 12:54:39;;;;;;;8.32;3.45;;;15.60;91.20;;;;;;6154543;23;20428;-86
2021/01/21 12:57:05;;;;;;;8.02;2.85;;;15.40;90.60;;;;;;6158947;23;20108;-86
2021/01/21 12:59:37;;;;;;;7.28;2.60;;;15.30;90.80;;;;;;6159724;23;20005;-86
2021/01/21 13:02:03;;;;;;;10.50;3.63;;;15.30;90.90;;;;;;6160143;23;20012;-90
2021/01/21 13:04:28;;;;;;;6.90;2.47;;;15.30;91.10;;;;;;6135813;23;20005;-90
2021/01/21 13:06:54;;;;;;;5.18;1.48;;;15.30;91.20;;;;;;6162966;23;20036;-88
2021/01/21 13:09:25;;;;;;;4.80;2.10;;;15.40;91.30;;;;;;6160167;23;20001;-88
2021/01/21 13:12:10;;;;;;;5.40;2.33;;;15.30;90.90;;;;;;6136027;23;20009;-87
2021/01/21 13:14:36;;;;;;;4.68;2.05;;;15.30;91.30;;;;;;6112636;23;20021;-86
2021/01/21 13:17:03;;;;;;;3.65;1.85;;;15.40;91.20;;;;;;6159257;23;20049;-87
2021/01/21 13:19:28;;;;;;;4.03;1.33;;;15.30;90.80;;;;;;6159105;23;20005;-87
2021/01/21 13:21:54;;;;;;;4.78;2.00;;;15.30;90.90;;;;;;6159504;23;20001;-87